Time;durP1;ratioP1;P1;durP2;ratioP2;P2;SDS_P1;SDS_P2;PMS_P1;PMS_P2;Temp;Humidity;BMP_temperature;BMP_pressure;BME280_temperature;BME280_humidity;BME280_pressure;Samples;Min_cycle;Max_cycle;Signal;HPM_P1;HPM_P2
2022/04/13 00:00:38;;;;;;;13.83;4.30;;;;;;;15.05;57.74;100997.88;5091833;28;20040;-83
2022/04/13 00:03:04;;;;;;;9.93;4.10;;;;;;;14.97;57.46;100990.91;5090346;28;20047;-82
2022/04/13 00:05:29;;;;;;;12.57;4.50;;;;;;;14.92;57.99;100990.78;5090071;28;20032;-82
2022/04/13 00:07:55;;;;;;;10.67;4.40;;;;;;;14.95;57.56;100992.19;5091902;28;20050;-82
2022/04/13 00:10:20;;;;;;;16.63;4.40;;;;;;;14.91;57.76;101001.94;5090525;28;20048;-83
2022/04/13 00:13:08;;;;;;;12.90;4.07;;;;;;;14.88;58.05;101003.22;5093521;28;20043;-84
2022/04/13 00:15:33;;;;;;;9.47;4.07;;;;;;;14.76;58.36;100994.22;5091303;28;20044;-83
2022/04/13 00:17:59;;;;;;;14.00;4.20;;;;;;;14.77;58.69;100995.84;5090213;28;20496;-83
2022/04/13 00:20:24;;;;;;;11.10;4.27;;;;;;;14.73;58.58;100994.66;5092074;28;20035;-84
2022/04/13 00:22:49;;;;;;;11.77;4.20;;;;;;;14.68;58.84;101001.66;5091907;28;20115;-83
2022/04/13 00:25:15;;;;;;;8.53;4.20;;;;;;;14.49;59.85;100984.53;5091085;28;20115;-82
2022/04/13 00:27:40;;;;;;;12.93;4.47;;;;;;;14.49;59.86;100998.16;5091026;28;20099;-84
2022/04/13 00:30:07;;;;;;;8.90;4.17;;;;;;;14.41;60.31;100989.50;5090776;28;20039;-84
2022/04/13 00:32:33;;;;;;;11.30;4.10;;;;;;;14.38;60.32;101009.06;5091315;28;20598;-82
2022/04/13 00:35:02;;;;;;;10.97;4.13;;;;;;;14.30;60.80;101010.22;5088992;28;20039;-83
2022/04/13 00:37:28;;;;;;;10.20;3.90;;;;;;;14.14;61.99;101003.53;5091311;28;20052;-83
2022/04/13 00:39:54;;;;;;;11.63;4.17;;;;;;;14.08;61.41;100990.84;5091330;28;20080;-82
2022/04/13 00:42:19;;;;;;;8.93;3.97;;;;;;;14.06;61.37;100993.81;5090761;28;20032;-83
2022/04/13 00:44:44;;;;;;;14.57;4.53;;;;;;;13.99;62.02;100993.03;5089249;28;20035;-84
2022/04/13 00:47:10;;;;;;;11.77;4.33;;;;;;;14.04;62.09;101008.72;5078005;28;20036;-83
2022/04/13 00:49:37;;;;;;;10.43;4.23;;;;;;;13.96;62.14;101010.69;5092872;28;20447;-83
2022/04/13 00:52:05;;;;;;;11.97;4.13;;;;;;;13.96;62.30;101024.28;5094425;28;20145;-83
2022/04/13 00:54:31;;;;;;;11.23;4.60;;;;;;;13.94;62.60;101034.59;5094640;28;20020;-82
2022/04/13 00:56:57;;;;;;;12.30;4.43;;;;;;;13.90;62.70;101036.13;5091871;28;20069;-82
2022/04/13 00:59:24;;;;;;;13.77;4.73;;;;;;;13.81;62.80;101037.50;5089733;28;20035;-83
2022/04/13 01:01:53;;;;;;;12.60;4.37;;;;;;;13.77;63.24;101037.09;5093409;28;20151;-82
2022/04/13 01:04:21;;;;;;;9.77;4.07;;;;;;;13.72;63.46;101031.53;5094360;28;20304;-81
2022/04/13 01:06:47;;;;;;;13.33;4.70;;;;;;;13.73;63.59;101043.25;5093963;28;20031;-81
2022/04/13 01:09:13;;;;;;;11.53;4.53;;;;;;;13.72;63.48;101052.47;5093709;28;20036;-81
2022/04/13 01:11:39;;;;;;;10.63;4.50;;;;;;;13.72;63.75;101056.03;5094215;28;20051;-84
2022/04/13 01:14:05;;;;;;;11.27;4.53;;;;;;;13.69;63.37;101059.19;5094150;28;20363;-86
2022/04/13 01:16:32;;;;;;;11.13;4.87;;;;;;;13.64;63.81;101059.91;5094732;28;20036;-84
2022/04/13 01:18:57;;;;;;;13.57;5.10;;;;;;;13.55;64.13;101055.00;5094271;28;20096;-81
2022/04/13 01:21:45;;;;;;;9.60;4.13;;;;;;;13.58;63.87;101065.41;5093508;28;20071;-84
2022/04/13 01:24:12;;;;;;;11.07;4.80;;;;;;;13.47;64.34;101058.84;5095051;28;20067;-84
2022/04/13 01:26:38;;;;;;;16.33;4.97;;;;;;;13.50;64.82;101063.81;5093337;28;20098;-82
2022/04/13 01:29:04;;;;;;;13.27;4.97;;;;;;;13.50;64.89;101078.28;5095409;28;20438;-81
2022/04/13 01:31:30;;;;;;;14.47;4.93;;;;;;;13.50;64.45;101083.72;5089528;28;20471;-85
2022/04/13 01:33:57;;;;;;;17.37;5.40;;;;;;;13.45;64.76;101080.84;5094049;28;20044;-83
2022/04/13 01:36:22;;;;;;;15.17;5.70;;;;;;;13.44;65.22;101086.50;5094147;28;20109;-87
2022/04/13 01:38:48;;;;;;;10.83;5.00;;;;;;;13.43;65.35;101091.09;5091927;28;20109;-82
2022/04/13 01:41:13;;;;;;;12.87;5.63;;;;;;;13.43;65.13;101093.81;5094577;28;20039;-82
2022/04/13 01:43:38;;;;;;;10.53;5.47;;;;;;;13.44;65.19;101097.41;5093389;27;20066;-82
2022/04/13 01:46:04;;;;;;;12.17;5.63;;;;;;;13.34;65.60;101085.09;5092364;28;20039;-83
2022/04/13 01:48:31;;;;;;;14.13;6.50;;;;;;;13.40;66.03;101101.63;5093721;28;20028;-82
2022/04/13 01:50:58;;;;;;;15.70;5.97;;;;;;;13.34;66.07;101090.53;5095495;28;20040;-82
2022/04/13 01:53:24;;;;;;;14.60;6.23;;;;;;;13.35;66.83;101110.41;5093171;28;20239;-82
2022/04/13 01:55:50;;;;;;;14.87;6.03;;;;;;;13.30;67.18;101113.81;5092219;28;20501;-82
2022/04/13 01:58:15;;;;;;;13.33;5.83;;;;;;;13.30;67.82;101113.81;5092337;28;20870;-82
2022/04/13 02:00:41;;;;;;;13.50;6.17;;;;;;;13.32;66.89;101108.97;5093687;28;20044;-82
2022/04/13 02:03:06;;;;;;;14.10;6.00;;;;;;;13.29;67.50;101106.69;5092970;28;20040;-82
2022/04/13 02:05:32;;;;;;;14.03;6.57;;;;;;;13.25;67.84;101104.66;5091903;28;20040;-82
2022/04/13 02:07:57;;;;;;;13.40;6.40;;;;;;;13.25;68.16;101119.09;5091283;28;20039;-82
2022/04/13 02:10:23;;;;;;;12.67;6.37;;;;;;;13.23;68.39;101115.78;5092570;28;20111;-85
2022/04/13 02:12:48;;;;;;;11.17;6.37;;;;;;;13.18;69.10;101110.97;5091774;28;20066;-82
2022/04/13 02:15:15;;;;;;;14.27;6.50;;;;;;;13.09;69.39;101104.16;5090849;28;20364;-85
2022/04/13 02:17:40;;;;;;;12.93;6.50;;;;;;;13.13;69.44;101113.53;5091304;28;20433;-83
2022/04/13 02:20:06;;;;;;;16.37;6.63;;;;;;;13.14;68.93;101130.72;5093144;27;20039;-84
2022/04/13 02:22:31;;;;;;;14.07;6.43;;;;;;;12.96;70.26;101106.97;5092047;28;20032;-83
2022/04/13 02:25:01;;;;;;;13.40;6.63;;;;;;;13.04;69.82;101119.47;5092999;28;20595;-84
2022/04/13 02:27:27;;;;;;;13.13;6.23;;;;;;;13.09;68.96;101133.25;5092055;28;20466;-81
2022/04/13 02:29:52;;;;;;;15.30;6.80;;;;;;;13.02;69.84;101121.59;5093318;28;20042;-82
2022/04/13 02:32:18;;;;;;;14.13;6.40;;;;;;;13.02;70.15;101132.47;5091130;28;20036;-81
2022/04/13 02:34:44;;;;;;;16.73;6.60;;;;;;;12.97;70.31;101124.97;5088860;28;20044;-83
2022/04/13 02:37:11;;;;;;;12.83;6.13;;;;;;;12.86;70.74;101131.13;5092611;28;20031;-83
2022/04/13 02:39:36;;;;;;;15.07;6.73;;;;;;;12.87;70.64;101135.53;5087356;28;20063;-81
2022/04/13 02:42:02;;;;;;;13.80;6.90;;;;;;;12.87;71.31;101139.06;5093456;28;20154;-81
2022/04/13 02:44:27;;;;;;;13.57;7.07;;;;;;;12.86;70.93;101131.13;5094237;28;20110;-82
2022/04/13 02:46:53;;;;;;;13.47;7.87;;;;;;;12.82;71.50;101141.59;5091849;28;21208;-83
2022/04/13 02:49:18;;;;;;;17.17;7.33;;;;;;;12.74;72.52;101137.28;5089543;28;20035;-81
2022/04/13 02:51:43;;;;;;;14.00;7.40;;;;;;;12.73;72.34;101145.63;5090117;28;21382;-81
2022/04/13 02:54:09;;;;;;;15.40;7.67;;;;;;;12.71;71.94;101154.00;5092273;28;20042;-82
2022/04/13 02:56:35;;;;;;;15.03;7.73;;;;;;;12.68;72.11;101154.44;5093233;28;20046;-83
2022/04/13 02:59:00;;;;;;;16.60;8.20;;;;;;;12.63;72.42;101152.41;5092194;28;20642;-81
2022/04/13 03:01:26;;;;;;;17.33;8.23;;;;;;;12.63;72.78;101151.53;5092544;28;20040;-81
2022/04/13 03:03:51;;;;;;;16.83;7.97;;;;;;;12.64;72.46;101162.19;5091461;28;20039;-81
2022/04/13 03:06:16;;;;;;;16.23;7.63;;;;;;;12.63;72.58;101163.28;5093247;28;20119;-83
2022/04/13 03:08:42;;;;;;;17.77;8.20;;;;;;;12.64;72.79;101166.81;5092031;28;20696;-86
2022/04/13 03:11:08;;;;;;;15.23;7.67;;;;;;;12.63;73.15;101166.00;5092442;28;20116;-81
2022/04/13 03:13:33;;;;;;;15.13;8.00;;;;;;;12.60;73.01;101169.13;5086841;28;20198;-81
2022/04/13 03:15:59;;;;;;;16.57;8.20;;;;;;;12.55;73.54;101149.09;5094039;28;20043;-81
2022/04/13 03:18:24;;;;;;;15.70;7.67;;;;;;;12.52;73.64;101154.97;5091301;28;20035;-81
2022/04/13 03:20:49;;;;;;;17.83;8.03;;;;;;;12.50;73.55;101149.75;5092148;28;20032;-81
2022/04/13 03:23:15;;;;;;;13.97;8.27;;;;;;;12.35;73.67;101154.63;5092521;28;20463;-82
2022/04/13 03:25:40;;;;;;;16.90;8.17;;;;;;;12.32;74.02;101154.00;5092939;28;20039;-84
2022/04/13 03:28:07;;;;;;;17.27;8.40;;;;;;;12.22;74.40;101156.34;5089655;28;20059;-81
2022/04/13 03:30:32;;;;;;;17.57;8.53;;;;;;;12.36;74.22;101150.84;5093408;28;20035;-83
2022/04/13 03:32:57;;;;;;;15.90;9.13;;;;;;;12.26;74.60;101152.16;5089445;28;20367;-83
2022/04/13 03:35:23;;;;;;;16.87;8.40;;;;;;;12.16;74.70;101147.16;5093707;28;20028;-82
2022/04/13 03:37:48;;;;;;;16.20;8.47;;;;;;;12.14;74.92;101159.31;5092076;28;20048;-84
2022/04/13 03:40:13;;;;;;;17.53;8.50;;;;;;;12.01;75.04;101148.47;5111061;27;20134;-85
2022/04/13 03:42:41;;;;;;;19.50;9.37;;;;;;;11.91;75.71;101165.19;5089334;28;20040;-84
2022/04/13 03:45:07;;;;;;;17.03;9.07;;;;;;;11.85;75.99;101161.44;5090362;28;20031;-82
2022/04/13 03:47:33;;;;;;;20.23;8.93;;;;;;;11.76;76.65;101160.00;5091246;28;20036;-85
2022/04/13 03:49:58;;;;;;;17.50;8.70;;;;;;;11.61;77.17;101163.81;5091928;28;20042;-85
2022/04/13 03:52:24;;;;;;;17.00;9.10;;;;;;;11.53;77.52;101168.59;5090142;28;20391;-84
2022/04/13 03:54:49;;;;;;;19.40;8.77;;;;;;;11.35;77.10;101158.38;5089715;28;20387;-83
2022/04/13 03:57:15;;;;;;;16.33;9.00;;;;;;;11.46;77.05;101165.88;5089853;28;20036;-83
2022/04/13 03:59:40;;;;;;;17.30;8.80;;;;;;;11.29;77.06;101160.06;5087078;28;20039;-83
2022/04/13 04:02:06;;;;;;;17.37;9.13;;;;;;;11.31;78.08;101183.22;5092150;28;20036;-83
2022/04/13 04:04:31;;;;;;;14.33;8.57;;;;;;;11.14;78.58;101173.84;5090401;28;20447;-84
2022/04/13 04:06:57;;;;;;;15.43;8.70;;;;;;;11.20;78.81;101175.69;5094132;28;20038;-83
2022/04/13 04:09:22;;;;;;;16.27;8.90;;;;;;;11.00;78.57;101177.56;5090167;28;20121;-82
2022/04/13 04:11:47;;;;;;;17.60;9.07;;;;;;;11.12;78.74;101186.75;5091307;28;20039;-83
2022/04/13 04:14:13;;;;;;;13.20;8.50;;;;;;;11.08;79.00;101185.50;5089573;28;20036;-82
2022/04/13 04:16:38;;;;;;;17.87;9.00;;;;;;;11.04;79.36;101192.38;5090085;28;20039;-83
2022/04/13 04:19:04;;;;;;;16.47;9.13;;;;;;;10.97;79.59;101190.50;5090408;28;20075;-83
2022/04/13 04:21:29;;;;;;;17.80;8.87;;;;;;;10.93;79.43;101196.53;5091937;28;20032;-83
2022/04/13 04:23:54;;;;;;;17.30;9.67;;;;;;;10.92;80.25;101206.53;5087767;28;20448;-83
2022/04/13 04:26:20;;;;;;;19.87;9.53;;;;;;;10.88;80.63;101199.88;5094908;28;20126;-84
2022/04/13 04:28:45;;;;;;;17.33;9.93;;;;;;;10.78;81.18;101208.41;5096389;28;20041;-83
2022/04/13 04:31:10;;;;;;;18.50;10.03;;;;;;;10.81;81.59;101210.69;5093601;28;20066;-83
2022/04/13 04:33:36;;;;;;;20.47;10.27;;;;;;;10.79;81.62;101209.22;5094174;28;20070;-81
2022/04/13 04:36:01;;;;;;;20.03;9.67;;;;;;;10.71;81.71;101203.97;5094010;27;20036;-81
2022/04/13 04:38:32;;;;;;;19.93;10.53;;;;;;;10.69;82.11;101204.19;5095313;28;20139;-81
2022/04/13 04:40:59;;;;;;;20.60;11.00;;;;;;;10.74;82.34;101211.69;5093300;28;20040;-83
2022/04/13 04:43:24;;;;;;;22.50;10.93;;;;;;;10.75;82.69;101227.75;5095634;28;20131;-83
2022/04/13 04:45:51;;;;;;;22.20;11.10;;;;;;;10.64;82.75;101202.06;5093719;27;20383;-81
2022/04/13 04:48:16;;;;;;;18.43;10.57;;;;;;;10.75;82.77;101221.50;5097293;28;20093;-82
2022/04/13 04:50:41;;;;;;;17.43;10.00;;;;;;;10.62;82.37;101212.28;5094742;28;20107;-84
2022/04/13 04:53:13;;;;;;;21.27;11.80;;;;;;;10.64;83.25;101218.34;5095229;28;20055;-84
2022/04/13 04:55:38;;;;;;;21.70;11.90;;;;;;;10.79;83.57;101237.16;5092502;28;20340;-83
2022/04/13 04:58:04;;;;;;;20.73;11.23;;;;;;;10.80;83.88;101236.13;5094654;28;20078;-83
2022/04/13 05:00:35;;;;;;;21.57;11.97;;;;;;;10.85;84.40;101238.19;5094354;28;20059;-83
2022/04/13 05:03:00;;;;;;;23.57;12.63;;;;;;;10.81;84.35;101232.38;5092704;28;20073;-82
2022/04/13 05:05:25;;;;;;;23.10;13.17;;;;;;;10.91;84.56;101247.41;5093775;28;20035;-82
2022/04/13 05:07:51;;;;;;;21.17;12.60;;;;;;;10.93;84.92;101257.03;5095773;28;20032;-83
2022/04/13 05:10:16;;;;;;;21.90;12.90;;;;;;;10.98;85.03;101259.09;5095504;28;20042;-83
2022/04/13 05:12:48;;;;;;;22.60;12.60;;;;;;;10.98;84.56;101264.53;5095370;28;20042;-83
2022/04/13 05:15:14;;;;;;;20.53;12.63;;;;;;;11.03;84.95;101267.47;5093744;28;20028;-83
2022/04/13 05:17:40;;;;;;;23.03;12.97;;;;;;;11.04;85.14;101265.59;5095660;28;20356;-83
2022/04/13 05:20:07;;;;;;;22.03;13.17;;;;;;;11.03;85.33;101263.91;5095219;28;20140;-82
2022/04/13 05:22:32;;;;;;;21.73;13.30;;;;;;;11.11;85.27;101263.72;5095427;28;20126;-84
2022/04/13 05:25:07;;;;;;;24.03;14.10;;;;;;;11.10;85.22;101262.06;5095177;28;20382;-83
2022/04/13 05:27:32;;;;;;;20.55;13.57;;;;;;;11.22;85.00;101273.13;5091846;28;20121;-86
2022/04/13 05:29:58;;;;;;;22.63;13.80;;;;;;;11.24;85.08;101271.88;5088907;28;20478;-85
2022/04/13 05:32:23;;;;;;;23.17;14.20;;;;;;;11.29;84.80;101277.53;5092516;28;20085;-85
2022/04/13 05:34:48;;;;;;;22.23;14.53;;;;;;;11.40;84.40;101283.41;5094123;28;20038;-84
2022/04/13 05:37:14;;;;;;;22.97;15.03;;;;;;;11.46;84.51;101277.13;5091932;28;20378;-82
2022/04/13 05:39:39;;;;;;;26.30;15.13;;;;;;;11.50;84.71;101283.81;5094700;28;20059;-81
2022/04/13 05:42:05;;;;;;;22.50;13.97;;;;;;;11.59;84.15;101288.00;5095285;28;20051;-81
2022/04/13 05:44:30;;;;;;;22.13;15.37;;;;;;;11.72;84.43;101298.06;5092489;28;20036;-81
2022/04/13 05:46:56;;;;;;;23.73;14.77;;;;;;;11.72;84.19;101291.75;5093101;28;20032;-82
2022/04/13 05:49:21;;;;;;;24.90;15.17;;;;;;;11.83;83.63;101308.28;5101266;27;20463;-81
2022/04/13 05:51:46;;;;;;;23.03;15.20;;;;;;;11.89;83.40;101309.31;5094794;28;20032;-83
2022/04/13 05:54:12;;;;;;;22.83;15.13;;;;;;;11.95;83.02;101304.94;5094973;28;20134;-83
2022/04/13 05:56:37;;;;;;;26.03;15.30;;;;;;;12.01;83.08;101311.41;5095458;28;20043;-82
2022/04/13 05:59:03;;;;;;;25.17;15.17;;;;;;;12.07;82.65;101302.44;5095190;28;20036;-81
2022/04/13 06:01:28;;;;;;;25.70;15.60;;;;;;;12.05;82.02;101296.38;5095153;28;20092;-82
2022/04/13 06:03:53;;;;;;;23.67;15.83;;;;;;;12.19;82.44;101311.63;5076394;28;20114;-82
2022/04/13 06:06:19;;;;;;;27.13;15.63;;;;;;;12.28;82.15;101318.50;5095438;28;20043;-82
2022/04/13 06:08:44;;;;;;;23.30;16.50;;;;;;;12.35;81.44;101323.06;5095151;27;20479;-83
2022/04/13 06:11:09;;;;;;;27.47;16.57;;;;;;;12.40;81.04;101326.84;5095485;28;20035;-84
2022/04/13 06:13:36;;;;;;;25.30;16.70;;;;;;;12.44;81.52;101329.97;5094898;28;20142;-81
2022/04/13 06:16:01;;;;;;;23.20;15.60;;;;;;;12.50;80.93;101327.22;5095985;28;20121;-83
2022/04/13 06:18:26;;;;;;;25.80;17.30;;;;;;;12.56;81.65;101328.25;5094736;28;20043;-84
2022/04/13 06:20:52;;;;;;;26.47;16.80;;;;;;;12.62;80.91;101327.41;5093520;28;20050;-82
2022/04/13 06:23:18;;;;;;;26.63;16.97;;;;;;;12.71;80.52;101324.47;5094403;28;20039;-82
2022/04/13 06:25:44;;;;;;;28.00;17.53;;;;;;;12.80;80.86;101337.59;5094878;28;20036;-84
2022/04/13 06:28:09;;;;;;;26.60;17.30;;;;;;;12.85;80.16;101345.09;5095202;28;20107;-84
2022/04/13 06:30:34;;;;;;;26.33;17.57;;;;;;;12.90;79.86;101345.31;5094972;28;20039;-83
2022/04/13 06:33:00;;;;;;;26.07;16.70;;;;;;;12.96;79.88;101347.19;5093058;28;20043;-83
2022/04/13 06:35:26;;;;;;;26.43;16.50;;;;;;;13.07;79.50;101350.25;5093755;28;20039;-84
2022/04/13 06:37:51;;;;;;;25.77;16.87;;;;;;;13.13;78.70;101347.50;5093615;28;20183;-84
2022/04/13 06:40:17;;;;;;;25.57;16.57;;;;;;;13.21;78.63;101342.88;5095663;28;20043;-82
2022/04/13 06:42:43;;;;;;;23.60;16.67;;;;;;;13.28;78.79;101347.22;5103032;28;20493;-82
2022/04/13 06:45:11;;;;;;;28.17;17.77;;;;;;;13.29;79.34;101342.63;5104451;27;20030;-82
2022/04/13 06:47:37;;;;;;;25.57;17.70;;;;;;;13.35;78.69;101360.78;5106149;28;20043;-82
2022/04/13 06:50:03;;;;;;;24.63;17.20;;;;;;;13.41;78.80;101359.13;5094880;28;20368;-82
2022/04/13 06:52:35;;;;;;;28.77;17.47;;;;;;;13.46;78.35;101368.31;5093367;28;20028;-83
2022/04/13 06:55:00;;;;;;;29.23;17.33;;;;;;;13.43;78.79;101368.72;5093760;28;20031;-83
2022/04/13 06:57:26;;;;;;;26.37;17.53;;;;;;;13.47;77.71;101360.97;5090397;28;20044;-83
2022/04/13 06:59:51;;;;;;;26.93;17.87;;;;;;;13.57;77.93;101380.41;5091719;28;20043;-82
2022/04/13 07:02:16;;;;;;;31.07;18.90;;;;;;;13.59;78.82;101382.91;5091942;28;20481;-82
2022/04/13 07:04:42;;;;;;;28.37;18.80;;;;;;;13.66;78.59;101391.84;5091189;28;20070;-82
2022/04/13 07:07:07;;;;;;;26.30;18.73;;;;;;;13.71;78.67;101389.31;5090587;28;20036;-83
2022/04/13 07:09:33;;;;;;;28.40;19.30;;;;;;;13.73;78.17;101387.19;5089698;28;20039;-82
2022/04/13 07:11:59;;;;;;;27.07;18.97;;;;;;;13.84;78.08;101402.84;5088218;28;20059;-84
2022/04/13 07:14:24;;;;;;;28.63;18.60;;;;;;;13.82;77.26;101394.06;5092756;28;20036;-84
2022/04/13 07:16:50;;;;;;;26.23;19.43;;;;;;;13.89;77.24;101404.91;5073183;28;20046;-84
2022/04/13 07:19:16;;;;;;;28.53;20.07;;;;;;;13.90;76.62;101406.56;5093859;28;20024;-85
2022/04/13 07:22:03;;;;;;;29.80;20.33;;;;;;;13.89;77.22;101418.53;5089709;28;20112;-83
2022/04/13 07:24:28;;;;;;;28.97;19.90;;;;;;;13.82;77.60;101420.47;5093951;28;20032;-83
2022/04/13 07:26:55;;;;;;;31.23;20.10;;;;;;;13.79;77.91;101419.00;5094453;28;20163;-83
2022/04/13 07:29:20;;;;;;;31.27;21.00;;;;;;;13.78;77.80;101424.69;5093252;28;20055;-83
2022/04/13 07:31:46;;;;;;;29.37;19.83;;;;;;;13.84;77.65;101440.13;5094045;28;20110;-83
2022/04/13 07:34:11;;;;;;;28.40;20.20;;;;;;;13.85;77.11;101442.63;5093063;28;20042;-82
2022/04/13 07:36:36;;;;;;;28.43;20.33;;;;;;;13.80;78.00;101444.34;5093376;28;20176;-83
2022/04/13 07:39:02;;;;;;;32.10;21.43;;;;;;;13.75;78.16;101430.53;5091728;28;20132;-84
2022/04/13 07:41:28;;;;;;;27.57;20.83;;;;;;;13.91;77.66;101440.09;5094586;28;20933;-82
2022/04/13 07:43:55;;;;;;;30.03;21.07;;;;;;;13.89;77.46;101425.88;5093121;28;20046;-84
2022/04/13 07:46:21;;;;;;;29.87;19.80;;;;;;;14.07;77.41;101439.56;5093598;28;20477;-83
2022/04/13 07:48:47;;;;;;;33.27;22.20;;;;;;;14.20;78.42;101441.38;5091709;28;20166;-83
2022/04/13 07:51:12;;;;;;;28.23;20.73;;;;;;;14.31;76.28;101446.09;5093334;28;20036;-84
2022/04/13 07:53:37;;;;;;;28.27;21.50;;;;;;;14.33;76.17;101440.41;5089196;28;20130;-84
2022/04/13 07:56:03;;;;;;;25.73;20.10;;;;;;;14.45;75.84;101440.53;5093727;28;20220;-84
2022/04/13 07:58:28;;;;;;;28.37;20.57;;;;;;;14.52;75.38;101453.06;5093795;28;20788;-84
2022/04/13 08:00:54;;;;;;;25.97;18.93;;;;;;;14.57;74.92;101448.81;5092842;28;20127;-83
2022/04/13 08:03:19;;;;;;;26.97;18.97;;;;;;;14.54;74.90;101450.09;5092877;28;20539;-83
2022/04/13 08:05:44;;;;;;;25.57;18.67;;;;;;;14.56;74.99;101442.50;5092992;28;20498;-82
2022/04/13 08:08:10;;;;;;;26.17;19.17;;;;;;;14.69;75.45;101457.97;5093465;28;20039;-83
2022/04/13 08:10:35;;;;;;;25.00;18.97;;;;;;;14.77;76.21;101457.69;5093174;28;20118;-84
2022/04/13 08:13:00;;;;;;;24.73;19.10;;;;;;;14.87;74.76;101448.16;5059004;28;20051;-83
2022/04/13 08:15:26;;;;;;;27.63;18.70;;;;;;;15.03;73.20;101459.28;5093072;28;20047;-83
2022/04/13 08:17:51;;;;;;;25.43;18.43;;;;;;;15.23;73.18;101471.91;5091817;28;20040;-82
2022/04/13 08:20:17;;;;;;;24.67;17.53;;;;;;;15.45;72.65;101461.31;5092631;28;20040;-83
2022/04/13 08:22:43;;;;;;;23.13;16.93;;;;;;;15.55;72.53;101463.50;5093149;28;20059;-84
2022/04/13 08:25:09;;;;;;;23.57;17.23;;;;;;;15.76;71.56;101462.19;5093157;28;20174;-84
2022/04/13 08:27:35;;;;;;;24.40;16.60;;;;;;;16.03;69.49;101478.22;5093170;28;20048;-85
2022/04/13 08:30:01;;;;;;;23.60;17.00;;;;;;;16.37;69.50;101478.53;5093009;28;20135;-86
2022/04/13 08:32:26;;;;;;;22.43;15.03;;;;;;;16.54;67.86;101475.97;5093088;28;20486;-85
2022/04/13 08:34:52;;;;;;;22.63;14.87;;;;;;;16.56;66.47;101470.25;5088674;28;20467;-86
2022/04/13 08:37:21;;;;;;;23.33;14.13;;;;;;;16.86;67.07;101487.41;5093068;28;20050;-83
2022/04/13 08:39:46;;;;;;;19.10;13.03;;;;;;;17.15;65.96;101486.69;5092868;28;20059;-84
2022/04/13 08:42:33;;;;;;;20.03;13.03;;;;;;;17.25;65.12;101489.63;5093236;28;20036;-84
2022/04/13 08:45:04;;;;;;;20.53;12.47;;;;;;;17.44;65.17;101481.28;5077915;28;20062;-84
2022/04/13 08:47:33;;;;;;;20.23;12.33;;;;;;;17.47;63.74;101487.06;5093209;28;20063;-84
2022/04/13 08:49:59;;;;;;;21.03;13.33;;;;;;;17.51;62.33;101471.81;5088588;28;20032;-83
2022/04/13 08:52:29;;;;;;;23.93;13.37;;;;;;;17.42;63.63;101486.16;5093176;28;20067;-85
2022/04/13 08:55:14;;;;;;;19.70;12.93;;;;;;;17.57;65.07;101500.19;5097675;28;20064;-85
2022/04/13 08:57:45;;;;;;;19.77;13.30;;;;;;;17.64;64.18;101502.75;5093123;28;20032;-83
2022/04/13 09:00:16;;;;;;;17.93;12.20;;;;;;;17.70;62.72;101488.09;5092251;28;20539;-83
2022/04/13 09:02:50;;;;;;;19.20;12.13;;;;;;;18.11;63.28;101507.25;5092483;28;20120;-86
2022/04/13 09:05:27;;;;;;;;;;;;;;;18.66;62.58;101513.97;5092996;28;20063;-85
2022/04/13 09:08:02;;;;;;;18.37;12.33;;;;;;;18.34;60.72;101509.03;5091270;28;19919;-88
2022/04/13 09:10:29;;;;;;;20.98;12.35;;;;;;;18.30;60.52;101505.94;5092277;28;20039;-85
2022/04/13 09:12:56;;;;;;;18.97;12.43;;;;;;;18.24;60.35;101506.94;5095688;28;20088;-83
2022/04/13 09:15:21;;;;;;;17.73;12.40;;;;;;;18.05;60.42;101512.63;5096248;28;20434;-84
2022/04/13 09:17:47;;;;;;;20.03;13.20;;;;;;;18.08;61.52;101510.50;5096516;28;20086;-85
2022/04/13 09:20:13;;;;;;;20.07;12.07;;;;;;;18.04;61.36;101510.16;5094617;28;20039;-84
2022/04/13 09:22:41;;;;;;;17.23;11.50;;;;;;;17.95;60.92;101511.63;5096390;28;20916;-83
2022/04/13 09:25:07;;;;;;;19.67;11.37;;;;;;;18.03;61.17;101519.44;5096068;28;20827;-84
2022/04/13 09:27:35;;;;;;;21.00;12.33;;;;;;;18.04;60.74;101519.19;5096301;28;20424;-84
2022/04/13 09:30:01;;;;;;;19.00;12.70;;;;;;;18.13;60.85;101524.28;5094757;28;20039;-85
2022/04/13 09:32:27;;;;;;;18.10;11.57;;;;;;;17.95;61.59;101528.06;5095980;28;20278;-84
2022/04/13 09:34:53;;;;;;;20.37;12.07;;;;;;;17.97;62.87;101529.47;5095535;28;20044;-84
2022/04/13 09:37:19;;;;;;;18.53;10.37;;;;;;;17.89;61.45;101525.19;5096095;28;20678;-84
2022/04/13 09:39:46;;;;;;;16.97;11.17;;;;;;;17.67;61.36;101516.00;5095665;28;20106;-85
2022/04/13 09:42:15;;;;;;;18.03;11.00;;;;;;;17.72;63.17;101522.41;5097024;28;20371;-85
2022/04/13 09:44:41;;;;;;;19.47;11.30;;;;;;;17.79;63.21;101532.38;5095242;28;20473;-83
2022/04/13 09:47:11;;;;;;;18.87;11.53;;;;;;;17.60;62.89;101542.66;5095991;28;20032;-84
2022/04/13 09:49:47;;;;;;;19.93;12.23;;;;;;;17.64;63.24;101552.06;5095041;28;20035;-85
2022/04/13 09:52:15;;;;;;;19.50;12.40;;;;;;;17.60;64.20;101549.00;5096119;28;20035;-86
2022/04/13 09:54:48;;;;;;;18.07;12.03;;;;;;;17.55;63.40;101544.22;5095108;28;20044;-84
2022/04/13 09:57:23;;;;;;;19.63;12.80;;;;;;;17.25;64.57;101549.88;5093933;28;20043;-84
2022/04/13 10:00:08;;;;;;;17.37;12.10;;;;;;;17.28;64.18;101549.41;5078941;28;20440;-83
2022/04/13 10:02:41;;;;;;;17.37;12.23;;;;;;;17.08;64.80;101549.78;5095004;28;20131;-86
2022/04/13 10:05:20;;;;;;;18.43;12.57;;;;;;;17.10;65.14;101547.63;5095009;28;20028;-85
2022/04/13 10:08:02;;;;;;;20.00;12.13;;;;;;;17.08;65.08;101551.69;5095513;28;20391;-84
2022/04/13 10:10:28;;;;;;;18.50;13.23;;;;;;;16.94;64.99;101548.34;5095525;28;20034;-84
2022/04/13 10:12:54;;;;;;;18.73;14.10;;;;;;;16.80;65.09;101554.00;5095588;28;20057;-83
2022/04/13 10:15:19;;;;;;;20.80;14.17;;;;;;;16.61;65.93;101566.94;5095568;28;21677;-83
2022/04/13 10:17:45;;;;;;;20.33;13.77;;;;;;;16.61;66.56;101560.66;5095374;28;20678;-82
2022/04/13 10:20:10;;;;;;;18.87;13.10;;;;;;;16.48;66.84;101564.41;5094030;28;20424;-83
2022/04/13 10:23:02;;;;;;;19.87;13.60;;;;;;;16.56;67.28;101566.81;5093537;28;20094;-84
2022/04/13 10:25:28;;;;;;;19.80;12.73;;;;;;;16.46;67.66;101556.44;5095445;28;20092;-84
2022/04/13 10:28:01;;;;;;;21.50;13.73;;;;;;;16.41;68.08;101556.31;5095228;28;20061;-83
2022/04/13 10:30:29;;;;;;;21.23;14.17;;;;;;;16.37;68.21;101555.97;5095330;28;20043;-85
2022/04/13 10:33:03;;;;;;;20.93;13.60;;;;;;;16.34;67.84;101561.88;5094980;28;20108;-83
2022/04/13 10:35:30;;;;;;;22.70;13.45;;;;;;;16.23;68.24;101559.13;5100547;27;20039;-82
2022/04/13 10:37:56;;;;;;;23.47;14.03;;;;;;;16.15;68.47;101558.38;5093852;28;20075;-83
2022/04/13 10:40:23;;;;;;;19.83;13.07;;;;;;;16.23;69.34;101567.31;5094791;28;20038;-84
2022/04/13 10:42:51;;;;;;;20.03;12.97;;;;;;;16.24;69.08;101564.34;5095791;28;20161;-83
2022/04/13 10:45:16;;;;;;;20.73;12.43;;;;;;;16.21;69.20;101573.03;5094936;28;20487;-84
2022/04/13 10:47:55;;;;;;;19.47;12.07;;;;;;;16.28;69.29;101565.56;5094927;28;20040;-83
2022/04/13 10:50:39;;;;;;;20.47;12.10;;;;;;;16.28;68.18;101573.75;5093098;28;20044;-83
2022/04/13 10:53:28;;;;;;;19.02;12.15;;;;;;;16.28;69.40;101590.16;5094926;28;20039;-83
2022/04/13 10:55:58;;;;;;;18.87;12.30;;;;;;;16.04;69.85;101557.25;5094515;28;20508;-85
2022/04/13 10:58:35;;;;;;;19.70;12.10;;;;;;;16.23;68.77;101576.34;5094606;28;20070;-83
2022/04/13 11:01:04;;;;;;;17.17;11.80;;;;;;;16.25;68.32;101579.72;5094206;28;20080;-83
2022/04/13 11:03:35;;;;;;;19.40;12.33;;;;;;;16.29;69.68;101580.91;5094390;28;20038;-84
2022/04/13 11:06:03;;;;;;;18.20;11.40;;;;;;;16.27;68.73;101583.03;5094501;28;20076;-84
2022/04/13 11:08:48;;;;;;;19.77;12.00;;;;;;;16.24;69.18;101586.22;5094825;28;20041;-85
2022/04/13 11:11:21;;;;;;;19.00;11.47;;;;;;;15.89;70.26;101589.63;5094446;28;20493;-83